Time;durP1;ratioP1;P1;durP2;ratioP2;P2;SDS_P1;SDS_P2;PMS_P1;PMS_P2;Temp;Humidity;BMP_temperature;BMP_pressure;BME280_temperature;BME280_humidity;BME280_pressure;Samples;Min_cycle;Max_cycle;Signal;HPM_P1;HPM_P2
2021/01/18 00:00:47;;;;;;;32.65;9.05;;;4.40;99.90;;;;;;4984876;28;20725;-60
2021/01/18 00:03:13;;;;;;;32.08;8.25;;;4.40;99.90;;;;;;4989652;28;20030;-60
2021/01/18 00:05:39;;;;;;;26.70;6.95;;;4.50;99.90;;;;;;4988257;28;20038;-59
2021/01/18 00:08:05;;;;;;;29.17;7.80;;;4.50;99.90;;;;;;4988195;28;20486;-51
2021/01/18 00:10:31;;;;;;;26.75;7.93;;;4.50;99.90;;;;;;4988278;28;20030;-58
2021/01/18 00:12:56;;;;;;;30.90;7.07;;;4.50;99.90;;;;;;4989991;28;20542;-55
2021/01/18 00:15:24;;;;;;;29.60;8.68;;;4.40;99.90;;;;;;4988546;28;20149;-58
2021/01/18 00:17:51;;;;;;;30.47;9.07;;;4.40;99.90;;;;;;4988278;28;20135;-60
2021/01/18 00:20:19;;;;;;;26.02;7.88;;;4.40;99.90;;;;;;4989357;28;20088;-56
2021/01/18 00:22:46;;;;;;;30.15;8.50;;;4.30;99.90;;;;;;4989785;28;20030;-55
2021/01/18 00:25:14;;;;;;;29.92;9.35;;;4.30;99.90;;;;;;4989509;28;20041;-61
2021/01/18 00:27:40;;;;;;;34.15;10.57;;;4.30;99.90;;;;;;4989653;28;20056;-58
2021/01/18 00:30:18;;;;;;;31.70;8.45;;;4.20;99.90;;;;;;4987507;28;20033;-57
2021/01/18 00:32:43;;;;;;;32.53;8.75;;;4.20;99.90;;;;;;4998663;28;20037;-57
2021/01/18 00:35:15;;;;;;;30.48;9.30;;;4.20;99.90;;;;;;4990867;28;20818;-57
2021/01/18 00:37:41;;;;;;;32.05;9.68;;;4.20;99.90;;;;;;5001583;28;20030;-55
2021/01/18 00:40:09;;;;;;;43.67;11.68;;;4.20;99.90;;;;;;4987452;28;20014;-55
2021/01/18 00:42:34;;;;;;;28.80;8.88;;;4.10;99.90;;;;;;4987724;28;20588;-60
2021/01/18 00:45:00;;;;;;;26.40;9.45;;;4.10;99.90;;;;;;4987807;28;20073;-58
2021/01/18 00:47:25;;;;;;;30.70;10.18;;;4.10;99.90;;;;;;5004646;28;20033;-58
2021/01/18 00:49:51;;;;;;;31.50;8.90;;;4.10;99.90;;;;;;5007224;28;20132;-60
2021/01/18 00:52:16;;;;;;;30.58;10.55;;;4.20;99.90;;;;;;5007931;28;20022;-57
2021/01/18 00:54:42;;;;;;;37.35;10.27;;;4.10;99.90;;;;;;4995726;28;20030;-60
2021/01/18 00:57:07;;;;;;;37.95;11.05;;;4.10;99.90;;;;;;5005751;28;20105;-58
2021/01/18 00:59:33;;;;;;;45.25;12.10;;;4.10;99.90;;;;;;5005379;28;20030;-60
2021/01/18 01:01:59;;;;;;;29.60;10.82;;;4.10;99.90;;;;;;5037868;23;20045;-54
2021/01/18 01:04:25;;;;;;;36.05;10.85;;;4.10;99.90;;;;;;5002273;28;20484;-55
2021/01/18 01:06:51;;;;;;;27.33;10.82;;;4.10;99.90;;;;;;5015252;28;20022;-54
2021/01/18 01:09:17;;;;;;;34.25;11.52;;;4.00;99.90;;;;;;5030450;28;20026;-56
2021/01/18 01:11:46;;;;;;;40.65;11.65;;;4.00;99.90;;;;;;5031951;28;20048;-58
2021/01/18 01:14:12;;;;;;;36.03;12.93;;;4.00;99.90;;;;;;5012104;28;20068;-57
2021/01/18 01:16:38;;;;;;;36.55;11.82;;;4.00;99.90;;;;;;5029503;28;20104;-54
2021/01/18 01:19:03;;;;;;;35.58;12.45;;;3.90;99.90;;;;;;5010801;28;20030;-57
2021/01/18 01:21:29;;;;;;;26.92;10.73;;;3.90;99.90;;;;;;5011327;28;20504;-56
2021/01/18 01:23:55;;;;;;;37.88;12.35;;;3.80;99.90;;;;;;5011071;28;20033;-53
2021/01/18 01:26:22;;;;;;;26.90;11.73;;;3.90;99.90;;;;;;5011264;28;20200;-54
2021/01/18 01:28:47;;;;;;;32.22;12.80;;;3.90;99.90;;;;;;5011613;28;20029;-53
2021/01/18 01:31:13;;;;;;;33.55;13.30;;;3.80;99.90;;;;;;5013177;28;20142;-58
2021/01/18 01:33:39;;;;;;;32.33;14.00;;;3.80;99.90;;;;;;5013711;28;20121;-59
2021/01/18 01:36:07;;;;;;;35.13;12.38;;;3.70;99.90;;;;;;5013547;28;20025;-56
2021/01/18 01:38:34;;;;;;;37.00;12.68;;;3.80;99.90;;;;;;5031044;28;20041;-58
2021/01/18 01:41:00;;;;;;;36.25;13.13;;;3.80;99.90;;;;;;5031679;28;20057;-55
2021/01/18 01:43:26;;;;;;;32.55;12.50;;;3.80;99.90;;;;;;5031320;28;20390;-59
2021/01/18 01:45:51;;;;;;;37.60;13.73;;;3.90;99.90;;;;;;5031411;28;20033;-59
2021/01/18 01:48:18;;;;;;;30.83;13.18;;;3.90;99.90;;;;;;5030149;28;20034;-60
2021/01/18 01:50:45;;;;;;;31.80;13.40;;;3.90;99.90;;;;;;5013033;28;20048;-59
2021/01/18 01:53:19;;;;;;;33.70;13.25;;;3.90;99.90;;;;;;5013359;28;20029;-57
2021/01/18 01:55:44;;;;;;;31.52;14.15;;;3.80;99.90;;;;;;5013404;28;20049;-56
2021/01/18 01:58:12;;;;;;;30.45;12.65;;;3.80;99.90;;;;;;5012580;28;20493;-52
2021/01/18 02:00:41;;;;;;;36.20;13.45;;;3.80;99.90;;;;;;5030160;28;20101;-57
2021/01/18 02:03:16;;;;;;;31.33;13.35;;;3.80;99.90;;;;;;5030952;28;20038;-57
2021/01/18 02:05:43;;;;;;;29.10;12.30;;;3.80;99.90;;;;;;5012941;28;20052;-56
2021/01/18 02:08:09;;;;;;;30.48;12.73;;;3.80;99.90;;;;;;5012413;28;20049;-57
2021/01/18 02:10:37;;;;;;;32.95;14.90;;;3.70;99.90;;;;;;5030731;28;20093;-57
2021/01/18 02:13:18;;;;;;;26.30;12.38;;;3.70;99.90;;;;;;5031129;28;20022;-59
2021/01/18 02:16:13;;;;;;;29.70;11.93;;;3.60;99.90;;;;;;5032055;28;20476;-55
2021/01/18 02:18:51;;;;;;;35.33;10.73;;;3.60;99.90;;;;;;5034275;28;20113;-58
2021/01/18 02:21:31;;;;;;;32.47;12.80;;;3.60;99.90;;;;;;5034466;28;20038;-58
2021/01/18 02:24:23;;;;;;;35.08;13.25;;;3.70;99.90;;;;;;5034624;28;20037;-56
2021/01/18 02:27:33;;;;;;;30.58;10.48;;;3.70;99.90;;;;;;5034476;28;20079;-58
2021/01/18 02:30:20;;;;;;;26.02;10.15;;;3.70;99.90;;;;;;5033809;28;20032;-57
2021/01/18 02:33:07;;;;;;;30.60;13.75;;;3.60;99.90;;;;;;5034346;28;20096;-55
2021/01/18 02:36:00;;;;;;;25.65;10.20;;;3.60;99.90;;;;;;5016655;28;20028;-57
2021/01/18 02:38:56;;;;;;;31.30;10.43;;;3.60;99.90;;;;;;5016034;28;20052;-57
2021/01/18 02:41:38;;;;;;;27.90;10.52;;;3.70;99.90;;;;;;5034116;28;20033;-53
2021/01/18 02:44:09;;;;;;;26.90;10.25;;;3.70;99.90;;;;;;5016568;28;20022;-57
2021/01/18 02:46:37;;;;;;;30.75;11.75;;;3.70;99.90;;;;;;5016437;28;20029;-58
2021/01/18 02:49:04;;;;;;;28.98;12.10;;;3.70;99.90;;;;;;5015776;28;20032;-55
2021/01/18 02:51:38;;;;;;;35.10;15.07;;;3.70;99.90;;;;;;5017255;28;20022;-55
2021/01/18 02:54:04;;;;;;;38.90;13.85;;;3.70;99.90;;;;;;5034681;28;20384;-57
2021/01/18 02:56:33;;;;;;;35.75;11.70;;;3.70;99.90;;;;;;5034471;28;20117;-57
2021/01/18 02:58:59;;;;;;;35.80;13.13;;;3.80;99.90;;;;;;5034153;28;20029;-58
2021/01/18 03:01:47;;;;;;;31.00;12.77;;;3.80;99.90;;;;;;5016448;28;20061;-60
2021/01/18 03:04:33;;;;;;;35.30;14.32;;;3.80;99.90;;;;;;5016629;28;20389;-57
2021/01/18 03:07:12;;;;;;;35.60;13.95;;;3.90;99.90;;;;;;5033482;28;20128;-57
2021/01/18 03:09:53;;;;;;;32.72;13.20;;;3.90;99.90;;;;;;5032885;28;20065;-56
2021/01/18 03:12:22;;;;;;;35.70;13.75;;;3.80;99.90;;;;;;5033832;28;20041;-56
2021/01/18 03:14:52;;;;;;;40.38;15.52;;;3.90;99.90;;;;;;5033856;28;20061;-60
2021/01/18 03:17:28;;;;;;;44.08;18.48;;;3.90;99.90;;;;;;5033362;28;20149;-57
2021/01/18 03:19:54;;;;;;;40.03;14.85;;;3.80;99.90;;;;;;5015284;28;20392;-58
2021/01/18 03:22:25;;;;;;;35.83;15.75;;;3.90;99.90;;;;;;5033379;28;20029;-59
2021/01/18 03:24:51;;;;;;;37.92;15.90;;;3.80;99.90;;;;;;5015635;28;20040;-57
2021/01/18 03:27:17;;;;;;;39.63;16.17;;;3.80;99.90;;;;;;5032771;28;20025;-59
2021/01/18 03:29:43;;;;;;;39.95;16.35;;;3.80;99.90;;;;;;5032793;28;20060;-59
2021/01/18 03:32:09;;;;;;;47.63;18.00;;;3.80;99.90;;;;;;5033186;28;20049;-56
2021/01/18 03:34:36;;;;;;;37.38;15.70;;;3.90;99.90;;;;;;5015725;28;20104;-59
2021/01/18 03:37:02;;;;;;;38.80;16.77;;;3.90;99.90;;;;;;5015493;28;20029;-59
2021/01/18 03:39:29;;;;;;;38.67;15.13;;;3.90;99.90;;;;;;5032427;28;20029;-58
2021/01/18 03:41:55;;;;;;;36.08;14.40;;;3.90;99.90;;;;;;5033191;28;20096;-57
2021/01/18 03:44:20;;;;;;;45.40;17.05;;;3.90;99.90;;;;;;5033021;28;20061;-58
2021/01/18 03:46:46;;;;;;;41.65;16.33;;;3.90;99.90;;;;;;5015553;28;20120;-54
2021/01/18 03:49:12;;;;;;;40.75;14.27;;;3.90;99.90;;;;;;5031999;28;20040;-59
2021/01/18 03:51:39;;;;;;;37.20;15.10;;;3.90;99.90;;;;;;5033031;28;20049;-57
2021/01/18 03:54:04;;;;;;;36.00;14.30;;;3.90;99.90;;;;;;5015218;28;20332;-59
2021/01/18 03:56:30;;;;;;;38.63;15.80;;;3.90;99.90;;;;;;5033114;28;20025;-58
2021/01/18 03:58:56;;;;;;;43.08;15.95;;;3.90;99.90;;;;;;5031246;28;20089;-57
2021/01/18 04:01:21;;;;;;;37.03;15.13;;;3.90;99.90;;;;;;5031109;28;20448;-58
2021/01/18 04:03:48;;;;;;;40.92;15.82;;;3.90;99.90;;;;;;5014639;28;20026;-54
2021/01/18 04:06:13;;;;;;;34.78;13.63;;;3.90;99.90;;;;;;5032708;28;20021;-59
2021/01/18 04:08:39;;;;;;;34.70;16.13;;;3.90;99.90;;;;;;5031839;28;20044;-58
2021/01/18 04:11:05;;;;;;;28.90;13.65;;;4.00;99.90;;;;;;5032427;28;20025;-59
2021/01/18 04:13:30;;;;;;;34.10;14.77;;;4.00;99.90;;;;;;5032887;28;20053;-57
2021/01/18 04:15:56;;;;;;;34.40;14.40;;;4.00;99.90;;;;;;5032744;28;20478;-58
2021/01/18 04:18:22;;;;;;;35.75;16.45;;;4.00;99.90;;;;;;5031940;28;20075;-56
2021/01/18 04:20:48;;;;;;;38.22;14.98;;;4.00;99.90;;;;;;5032150;28;20397;-57
2021/01/18 04:23:14;;;;;;;42.60;16.63;;;4.00;99.90;;;;;;5032248;28;20029;-58
2021/01/18 04:25:40;;;;;;;38.95;15.80;;;4.00;99.90;;;;;;5014870;28;20033;-59
2021/01/18 04:28:06;;;;;;;36.20;14.68;;;4.00;99.90;;;;;;5032208;28;20393;-59
2021/01/18 04:30:35;;;;;;;32.55;13.73;;;4.00;99.90;;;;;;5031755;28;20105;-60
2021/01/18 04:33:06;;;;;;;42.78;12.88;;;4.00;99.90;;;;;;5032531;28;20022;-57
2021/01/18 04:35:38;;;;;;;30.75;13.32;;;4.00;99.90;;;;;;5014390;28;20499;-59
2021/01/18 04:38:05;;;;;;;32.75;14.65;;;4.10;99.90;;;;;;5031534;28;20029;-58
2021/01/18 04:40:33;;;;;;;35.05;13.77;;;4.10;99.90;;;;;;5013522;28;20039;-60
2021/01/18 04:42:59;;;;;;;32.85;14.15;;;4.00;99.90;;;;;;5014384;28;20030;-57
2021/01/18 04:45:27;;;;;;;36.63;14.68;;;4.00;99.90;;;;;;5014478;28;20453;-59
2021/01/18 04:47:54;;;;;;;;;;;4.00;99.90;;;;;;5032210;28;20049;-55
2021/01/18 04:50:21;;;;;;;33.42;14.63;;;4.00;99.90;;;;;;5031382;28;20327;-58
2021/01/18 04:52:50;;;;;;;33.65;15.68;;;4.00;99.90;;;;;;5031900;28;20040;-59
2021/01/18 04:55:16;;;;;;;;;;;4.00;99.90;;;;;;5032184;28;20036;-59
2021/01/18 04:57:52;;;;;;;31.38;14.25;;;4.00;99.90;;;;;;5014123;28;19992;-58
2021/01/18 05:00:24;;;;;;;29.85;14.02;;;4.00;99.90;;;;;;5013829;28;20038;-56
2021/01/18 05:02:52;;;;;;;35.35;14.32;;;4.00;99.90;;;;;;5014189;28;20124;-59
2021/01/18 05:05:23;;;;;;;;;;;4.00;99.90;;;;;;5032346;28;20025;-58
2021/01/18 05:08:06;;;;;;;34.70;14.30;;;4.00;99.90;;;;;;5031770;28;20433;-56
2021/01/18 05:10:32;;;;;;;34.45;16.35;;;4.00;99.90;;;;;;5031322;28;20473;-59
2021/01/18 05:13:02;;;;;;;36.17;15.57;;;4.00;99.90;;;;;;5031664;28;20075;-59
2021/01/18 05:15:28;;;;;;;44.45;15.60;;;3.90;99.90;;;;;;5031654;28;20021;-59
2021/01/18 05:17:58;;;;;;;36.03;14.98;;;3.90;99.90;;;;;;5013651;28;20056;-58
2021/01/18 05:20:25;;;;;;;33.38;15.10;;;4.00;99.90;;;;;;5013539;28;20030;-59
2021/01/18 05:22:51;;;;;;;35.35;14.90;;;3.90;99.90;;;;;;5014228;28;20029;-60
2021/01/18 05:25:18;;;;;;;42.80;14.90;;;3.90;99.90;;;;;;5013865;28;20112;-56
2021/01/18 05:28:05;;;;;;;34.58;14.98;;;3.90;99.90;;;;;;5013786;28;20030;-59
2021/01/18 05:30:36;;;;;;;31.05;14.40;;;3.90;99.90;;;;;;5031278;28;20366;-57
2021/01/18 05:33:11;;;;;;;35.15;13.85;;;3.90;99.90;;;;;;5031641;28;20362;-59
2021/01/18 05:35:51;;;;;;;35.58;14.23;;;3.90;99.90;;;;;;5031386;28;20024;-59
2021/01/18 05:38:17;;;;;;;32.47;13.82;;;4.00;99.90;;;;;;5031400;28;20362;-53
2021/01/18 05:40:47;;;;;;;31.95;12.98;;;4.00;99.90;;;;;;5031303;28;20025;-59
2021/01/18 05:43:14;;;;;;;30.50;12.90;;;4.00;99.90;;;;;;5029963;28;20109;-56
2021/01/18 05:45:41;;;;;;;32.58;13.65;;;4.00;99.90;;;;;;5031759;28;20429;-55
2021/01/18 05:48:08;;;;;;;31.33;13.40;;;4.00;99.90;;;;;;5012767;28;20029;-59
2021/01/18 05:50:35;;;;;;;35.58;14.77;;;4.00;99.90;;;;;;5031890;28;20021;-61
2021/01/18 05:53:02;;;;;;;33.42;13.45;;;3.90;99.90;;;;;;5016891;28;20046;-57
2021/01/18 05:55:29;;;;;;;33.47;13.10;;;4.00;99.90;;;;;;5034556;28;20238;-58
2021/01/18 05:57:58;;;;;;;30.70;12.82;;;3.90;99.90;;;;;;5033987;28;20029;-55
2021/01/18 06:00:27;;;;;;;32.47;14.65;;;4.00;99.90;;;;;;5015884;28;20041;-56
2021/01/18 06:02:53;;;;;;;32.40;14.60;;;4.00;99.90;;;;;;5034226;28;20017;-57
2021/01/18 06:05:30;;;;;;;34.05;14.48;;;3.90;99.90;;;;;;5034115;28;20091;-58
2021/01/18 06:08:17;;;;;;;34.45;13.80;;;3.90;99.90;;;;;;5015973;28;20021;-60
2021/01/18 06:10:44;;;;;;;39.03;15.82;;;3.90;99.90;;;;;;5033561;28;20033;-59
2021/01/18 06:13:35;;;;;;;30.73;12.85;;;3.90;99.90;;;;;;5033847;28;20405;-58
2021/01/18 06:16:01;;;;;;;40.30;17.17;;;3.90;99.90;;;;;;5033785;28;20025;-59
2021/01/18 06:18:29;;;;;;;33.72;14.43;;;3.90;99.90;;;;;;5032284;28;20477;-53
2021/01/18 06:20:58;;;;;;;32.80;15.10;;;4.00;99.90;;;;;;5033557;28;20481;-54
2021/01/18 06:23:24;;;;;;;33.80;14.75;;;4.00;99.90;;;;;;5015785;28;20059;-58
2021/01/18 06:25:52;;;;;;;38.08;15.68;;;4.00;99.90;;;;;;5034221;28;20104;-55
2021/01/18 06:28:28;;;;;;;34.67;15.88;;;4.00;99.90;;;;;;5015820;28;20032;-58
2021/01/18 06:31:04;;;;;;;30.27;14.55;;;4.00;99.90;;;;;;5016104;28;20044;-58
2021/01/18 06:33:36;;;;;;;41.55;14.52;;;4.00;99.90;;;;;;5034045;28;20397;-60
2021/01/18 06:36:21;;;;;;;33.53;15.02;;;4.00;99.90;;;;;;5016347;28;20495;-59
2021/01/18 06:38:58;;;;;;;41.67;16.77;;;4.00;99.90;;;;;;5033102;28;20032;-59
2021/01/18 06:41:35;;;;;;;33.08;15.55;;;4.00;99.90;;;;;;5016128;28;20105;-59
2021/01/18 06:44:01;;;;;;;39.88;16.65;;;4.00;99.90;;;;;;5033811;28;20136;-60
2021/01/18 06:46:33;;;;;;;37.08;16.77;;;4.00;99.90;;;;;;5033627;28;20032;-58
2021/01/18 06:48:59;;;;;;;38.38;15.45;;;4.10;99.90;;;;;;5032964;28;20021;-56
2021/01/18 06:51:27;;;;;;;41.03;15.68;;;4.10;99.90;;;;;;5015683;28;20024;-59
2021/01/18 06:53:55;;;;;;;33.20;16.33;;;4.20;99.90;;;;;;5015845;28;20029;-58
2021/01/18 06:56:25;;;;;;;35.83;15.50;;;4.10;99.90;;;;;;5033644;28;20084;-56
2021/01/18 06:59:26;;;;;;;44.33;17.23;;;4.10;99.90;;;;;;5014828;28;20053;-58
2021/01/18 07:02:13;;;;;;;39.05;18.08;;;4.20;99.90;;;;;;5045832;23;20180;-59
2021/01/18 07:04:45;;;;;;;39.63;18.27;;;4.20;99.90;;;;;;5016077;28;20401;-60
2021/01/18 07:07:23;;;;;;;46.80;21.95;;;4.20;99.90;;;;;;5015790;28;20017;-60
2021/01/18 07:09:55;;;;;;;46.05;20.13;;;4.20;99.90;;;;;;5014977;28;20117;-61
2021/01/18 07:12:24;;;;;;;36.58;17.88;;;4.20;99.90;;;;;;5033679;28;20480;-57
2021/01/18 07:14:58;;;;;;;42.65;19.98;;;4.20;99.90;;;;;;5015633;28;20075;-60
2021/01/18 07:17:42;;;;;;;46.33;22.52;;;4.20;99.90;;;;;;5015668;28;20117;-60
2021/01/18 07:20:22;;;;;;;42.20;20.80;;;4.30;99.90;;;;;;5015066;28;20032;-61
2021/01/18 07:23:08;;;;;;;58.85;21.42;;;4.30;99.90;;;;;;5015390;28;20394;-59
2021/01/18 07:25:45;;;;;;;43.92;19.55;;;4.20;99.90;;;;;;5033119;28;20032;-62
2021/01/18 07:28:20;;;;;;;41.78;19.85;;;4.30;99.90;;;;;;5015010;28;20196;-60
2021/01/18 07:30:49;;;;;;;37.90;18.98;;;4.30;99.90;;;;;;5033190;28;20049;-58
2021/01/18 07:33:18;;;;;;;43.78;20.70;;;4.30;99.90;;;;;;5033461;28;20048;-59
2021/01/18 07:35:45;;;;;;;44.33;19.85;;;4.40;99.90;;;;;;5014924;28;20025;-62
2021/01/18 07:38:14;;;;;;;42.58;19.48;;;4.40;99.90;;;;;;5032882;28;20029;-59
2021/01/18 07:40:40;;;;;;;46.45;22.50;;;4.40;99.90;;;;;;5014944;28;20056;-61
2021/01/18 07:43:07;;;;;;;45.63;22.02;;;4.40;99.90;;;;;;5032609;28;20041;-58
2021/01/18 07:45:32;;;;;;;40.95;20.55;;;4.40;99.90;;;;;;5013461;28;20389;-58
2021/01/18 07:48:01;;;;;;;41.90;19.90;;;4.30;99.90;;;;;;5017723;28;20030;-59
2021/01/18 07:50:35;;;;;;;41.58;20.83;;;4.40;99.90;;;;;;5018188;28;20023;-61
2021/01/18 07:53:04;;;;;;;41.97;20.08;;;4.40;99.90;;;;;;5032360;28;20029;-60
2021/01/18 07:55:30;;;;;;;39.65;19.20;;;4.40;99.90;;;;;;5014480;28;20022;-60
2021/01/18 07:58:20;;;;;;;37.92;20.40;;;4.40;99.90;;;;;;5015369;28;20026;-59
2021/01/18 08:00:47;;;;;;;40.42;20.50;;;4.40;99.90;;;;;;5032393;28;20052;-60
2021/01/18 08:03:12;;;;;;;44.10;20.27;;;4.40;99.90;;;;;;5031254;28;20025;-62
2021/01/18 08:05:42;;;;;;;45.97;22.55;;;4.40;99.90;;;;;;5032059;28;20022;-61
2021/01/18 08:08:16;;;;;;;42.55;21.88;;;4.40;99.90;;;;;;5029906;28;20026;-60
2021/01/18 08:11:17;;;;;;;42.65;19.67;;;4.40;99.90;;;;;;5031052;28;20025;-61
2021/01/18 08:13:43;;;;;;;40.53;18.33;;;4.40;99.90;;;;;;5031948;28;20393;-59
2021/01/18 08:16:19;;;;;;;42.00;22.50;;;4.40;99.90;;;;;;5031903;28;20285;-58
2021/01/18 08:19:18;;;;;;;41.20;21.17;;;4.40;99.90;;;;;;5031576;28;20026;-60
2021/01/18 08:21:47;;;;;;;44.90;19.98;;;4.40;99.90;;;;;;5032416;28;20029;-58
2021/01/18 08:24:27;;;;;;;41.90;21.67;;;4.40;99.90;;;;;;5032352;28;20029;-61
2021/01/18 08:27:03;;;;;;;46.95;19.80;;;4.50;99.90;;;;;;5031898;28;20026;-61
2021/01/18 08:29:44;;;;;;;51.38;21.45;;;4.50;99.90;;;;;;5031143;28;20091;-60
2021/01/18 08:32:22;;;;;;;45.70;19.02;;;4.40;99.90;;;;;;5013682;28;20018;-62
2021/01/18 08:34:53;;;;;;;47.65;21.50;;;4.40;99.90;;;;;;5031739;28;20045;-58
2021/01/18 08:37:20;;;;;;;43.38;21.25;;;4.50;99.90;;;;;;5013876;28;20021;-61
2021/01/18 08:39:57;;;;;;;45.22;20.20;;;4.40;99.90;;;;;;5013914;28;20029;-59
2021/01/18 08:42:28;;;;;;;38.92;20.40;;;4.50;99.90;;;;;;5031809;28;20025;-56
2021/01/18 08:45:10;;;;;;;49.03;21.48;;;4.50;99.90;;;;;;5032610;28;20026;-55
2021/01/18 08:47:45;;;;;;;41.75;20.02;;;4.50;99.90;;;;;;5021900;28;20053;-59
2021/01/18 08:50:35;;;;;;;46.33;21.35;;;4.60;99.90;;;;;;5010899;28;20034;-61
2021/01/18 08:53:21;;;;;;;48.20;21.73;;;4.60;99.90;;;;;;5027728;28;20025;-56
2021/01/18 08:55:47;;;;;;;44.70;21.73;;;4.60;99.90;;;;;;5028444;28;20032;-60
2021/01/18 08:58:13;;;;;;;49.40;20.08;;;4.60;99.90;;;;;;5031608;28;20030;-61
2021/01/18 09:00:46;;;;;;;41.85;20.85;;;4.60;99.90;;;;;;5030826;28;20022;-57
2021/01/18 09:03:19;;;;;;;37.65;19.02;;;4.60;99.90;;;;;;5021831;28;20037;-50
2021/01/18 09:05:48;;;;;;;39.53;21.25;;;4.70;99.90;;;;;;5031531;28;20040;-53
2021/01/18 09:08:17;;;;;;;43.20;18.95;;;4.80;99.90;;;;;;5029686;28;20033;-50
2021/01/18 09:11:11;;;;;;;42.08;19.98;;;4.80;99.90;;;;;;5031936;28;20329;-54
2021/01/18 09:13:39;;;;;;;42.65;18.15;;;4.90;99.90;;;;;;5017530;28;20033;-55
2021/01/18 09:16:07;;;;;;;42.50;20.77;;;4.90;99.90;;;;;;5031449;28;20028;-60
2021/01/18 09:18:34;;;;;;;40.50;20.48;;;4.90;99.90;;;;;;5029281;28;20284;-60
2021/01/18 09:21:01;;;;;;;36.92;17.95;;;4.90;99.90;;;;;;5029308;28;20385;-57
2021/01/18 09:23:27;;;;;;;41.30;19.77;;;4.90;99.90;;;;;;5031091;28;20038;-54
2021/01/18 09:26:01;;;;;;;44.33;19.63;;;4.90;99.90;;;;;;5034029;28;20083;-51
2021/01/18 09:28:26;;;;;;;36.63;18.27;;;5.00;99.90;;;;;;5029017;28;20029;-54
2021/01/18 09:30:52;;;;;;;39.95;18.75;;;5.00;99.90;;;;;;5017183;28;20075;-59
2021/01/18 09:33:18;;;;;;;39.30;17.15;;;5.00;99.90;;;;;;5018391;28;20033;-53
2021/01/18 09:35:45;;;;;;;35.97;16.85;;;5.00;99.90;;;;;;5018413;28;20594;-51
2021/01/18 09:38:13;;;;;;;37.78;17.88;;;4.90;99.90;;;;;;5031890;28;20366;-52
2021/01/18 09:40:41;;;;;;;39.50;18.77;;;4.90;99.90;;;;;;5017743;28;20022;-54
2021/01/18 09:43:09;;;;;;;36.10;15.40;;;4.90;99.90;;;;;;5023302;28;20032;-55
2021/01/18 09:45:35;;;;;;;43.88;18.02;;;4.90;99.90;;;;;;5033302;28;20276;-51
2021/01/18 09:48:06;;;;;;;38.70;19.80;;;4.90;99.90;;;;;;5034720;28;20021;-55
2021/01/18 09:50:34;;;;;;;35.65;18.73;;;5.00;99.90;;;;;;5016787;28;20041;-56
2021/01/18 09:53:05;;;;;;;41.78;19.20;;;4.90;99.90;;;;;;5017303;28;20099;-53
2021/01/18 09:55:33;;;;;;;39.67;17.92;;;4.90;99.90;;;;;;5034695;28;20061;-57
2021/01/18 09:58:12;;;;;;;41.33;18.25;;;4.90;99.90;;;;;;5034916;28;20096;-57
2021/01/18 10:00:43;;;;;;;40.92;19.70;;;4.90;99.90;;;;;;5016115;28;20030;-58
2021/01/18 10:03:10;;;;;;;35.65;18.70;;;4.90;99.90;;;;;;5034342;28;20033;-58
2021/01/18 10:05:45;;;;;;;38.63;18.93;;;4.90;99.90;;;;;;5033992;28;20060;-59
2021/01/18 10:08:24;;;;;;;43.00;18.05;;;4.90;99.90;;;;;;5034399;28;20499;-54
2021/01/18 10:10:51;;;;;;;37.60;16.58;;;4.90;99.90;;;;;;5019652;28;20075;-59
2021/01/18 10:13:23;;;;;;;42.60;18.95;;;4.90;99.90;;;;;;5035026;28;20045;-59
2021/01/18 10:15:49;;;;;;;46.83;19.48;;;5.00;99.90;;;;;;5023234;28;20477;-57
2021/01/18 10:18:42;;;;;;;43.70;19.40;;;4.90;99.90;;;;;;5034752;28;20030;-57
2021/01/18 10:21:09;;;;;;;41.92;18.65;;;4.90;99.90;;;;;;5035087;28;20022;-52
2021/01/18 10:23:44;;;;;;;35.63;17.50;;;5.00;99.90;;;;;;5034975;28;20022;-57
2021/01/18 10:26:25;;;;;;;37.08;17.40;;;5.00;99.90;;;;;;5020231;28;20084;-57
2021/01/18 10:28:54;;;;;;;42.10;18.73;;;5.00;99.90;;;;;;5019405;28;20021;-57
2021/01/18 10:31:21;;;;;;;39.92;19.90;;;5.10;99.90;;;;;;5031969;28;20056;-57
2021/01/18 10:34:11;;;;;;;37.17;18.90;;;5.10;99.90;;;;;;5035107;28;20025;-58
2021/01/18 10:36:37;;;;;;;39.72;17.58;;;5.20;99.90;;;;;;5034122;28;20127;-55
2021/01/18 10:39:04;;;;;;;40.88;17.80;;;5.20;99.90;;;;;;5034191;28;20028;-57
2021/01/18 10:41:32;;;;;;;35.13;16.67;;;5.20;99.90;;;;;;5016352;28;20109;-56
2021/01/18 10:44:06;;;;;;;35.13;18.02;;;5.10;99.90;;;;;;5034344;28;20536;-57
2021/01/18 10:46:34;;;;;;;44.75;18.02;;;5.20;99.90;;;;;;5033595;28;20033;-57
2021/01/18 10:49:00;;;;;;;34.67;17.52;;;5.20;99.90;;;;;;5033488;28;20028;-60
2021/01/18 10:51:30;;;;;;;42.72;19.33;;;5.20;99.90;;;;;;5016522;28;20029;-64
2021/01/18 10:53:57;;;;;;;38.65;17.90;;;5.20;99.90;;;;;;5016720;28;20500;-59
2021/01/18 10:56:31;;;;;;;46.45;19.88;;;5.30;99.90;;;;;;5034181;28;20084;-57
2021/01/18 10:58:58;;;;;;;38.03;17.15;;;5.30;99.90;;;;;;5033540;28;20029;-56
2021/01/18 11:01:23;;;;;;;37.92;17.63;;;5.30;99.90;;;;;;5015758;28;20140;-57
2021/01/18 11:03:50;;;;;;;40.22;17.95;;;5.30;99.90;;;;;;5034063;28;20116;-55
2021/01/18 11:06:18;;;;;;;37.63;17.30;;;5.30;99.90;;;;;;5033959;28;20114;-58
2021/01/18 11:08:43;;;;;;;37.75;16.70;;;5.20;99.90;;;;;;5032225;28;20040;-55
2021/01/18 11:11:21;;;;;;;42.55;18.02;;;5.10;99.90;;;;;;5034255;28;20037;-60
2021/01/18 11:13:47;;;;;;;35.47;17.70;;;5.20;99.90;;;;;;5033109;28;20039;-54
2021/01/18 11:16:15;;;;;;;43.15;18.63;;;5.20;99.90;;;;;;5034052;28;20421;-58
2021/01/18 11:18:41;;;;;;;35.50;16.70;;;5.20;99.90;;;;;;5032076;28;20481;-58
2021/01/18 11:21:07;;;;;;;43.15;17.42;;;5.20;99.90;;;;;;5032762;28;20039;-59
2021/01/18 11:23:33;;;;;;;39.78;15.80;;;5.20;99.90;;;;;;5032337;28;20109;-59
2021/01/18 11:25:59;;;;;;;35.03;15.68;;;5.30;99.90;;;;;;5032754;28;20537;-58
2021/01/18 11:28:25;;;;;;;36.75;16.95;;;5.30;99.90;;;;;;5033024;28;20436;-56
2021/01/18 11:30:51;;;;;;;43.38;16.10;;;5.30;99.90;;;;;;5015736;28;20025;-58
2021/01/18 11:33:17;;;;;;;33.97;15.77;;;5.30;99.90;;;;;;5015450;28;20408;-59
2021/01/18 11:35:43;;;;;;;30.48;15.65;;;5.40;99.90;;;;;;5033460;28;20021;-60
2021/01/18 11:38:10;;;;;;;32.15;15.27;;;5.50;99.90;;;;;;5033257;28;20025;-60
2021/01/18 11:40:36;;;;;;;35.63;15.63;;;5.50;99.90;;;;;;5015491;28;20036;-57
2021/01/18 11:43:03;;;;;;;31.60;14.80;;;5.50;99.90;;;;;;5032606;28;20105;-58
2021/01/18 11:45:28;;;;;;;35.25;14.85;;;5.50;99.90;;;;;;5033534;28;20072;-57
2021/01/18 11:47:55;;;;;;;30.13;14.73;;;5.40;99.90;;;;;;5023359;28;20105;-58
2021/01/18 11:50:21;;;;;;;35.90;14.88;;;5.40;99.90;;;;;;5011357;28;20048;-57
2021/01/18 11:52:48;;;;;;;28.15;13.60;;;5.40;99.90;;;;;;5013702;28;20022;-59
2021/01/18 11:55:15;;;;;;;32.38;15.15;;;5.40;99.90;;;;;;5013738;28;20386;-60
2021/01/18 11:57:49;;;;;;;35.58;14.05;;;5.40;99.90;;;;;;5012933;28;20028;-59
2021/01/18 12:00:26;;;;;;;33.40;15.48;;;5.40;99.90;;;;;;5012849;28;20029;-55
2021/01/18 12:03:00;;;;;;;33.50;13.88;;;5.50;99.90;;;;;;5012931;28;20061;-56
2021/01/18 12:05:27;;;;;;;36.83;15.77;;;5.50;99.90;;;;;;5013005;28;20054;-59
2021/01/18 12:07:54;;;;;;;32.90;15.95;;;5.40;99.90;;;;;;5012805;28;20036;-53
2021/01/18 12:10:21;;;;;;;31.52;14.68;;;5.40;99.90;;;;;;5012522;28;20040;-54
2021/01/18 12:12:46;;;;;;;35.90;15.80;;;5.40;99.90;;;;;;5012677;28;20018;-60
2021/01/18 12:15:12;;;;;;;32.42;14.05;;;5.30;99.90;;;;;;5011226;28;20144;-55
2021/01/18 12:17:40;;;;;;;30.45;14.40;;;5.30;99.90;;;;;;5012363;28;20022;-59
2021/01/18 12:20:08;;;;;;;34.10;14.25;;;5.30;99.90;;;;;;5012038;28;20030;-62
2021/01/18 12:22:33;;;;;;;31.85;14.00;;;5.40;99.90;;;;;;5011320;28;20030;-61
2021/01/18 12:24:59;;;;;;;30.27;14.60;;;5.30;99.90;;;;;;5010574;28;20041;-57
2021/01/18 12:27:25;;;;;;;26.48;13.10;;;5.30;99.90;;;;;;5011058;28;20072;-60
2021/01/18 12:29:50;;;;;;;33.50;15.65;;;5.30;99.90;;;;;;5012004;28;20057;-57
2021/01/18 12:32:16;;;;;;;31.77;14.38;;;5.30;99.90;;;;;;5011493;28;20129;-59
2021/01/18 12:34:42;;;;;;;29.65;13.30;;;5.30;99.90;;;;;;5012523;28;20451;-57
2021/01/18 12:37:07;;;;;;;31.48;13.52;;;5.30;99.90;;;;;;4994638;28;20033;-59
2021/01/18 12:39:33;;;;;;;31.52;14.27;;;5.30;99.90;;;;;;5011707;28;20076;-58
2021/01/18 12:42:01;;;;;;;31.05;15.55;;;5.30;99.90;;;;;;5012164;28;20057;-56
2021/01/18 12:44:27;;;;;;;27.58;12.98;;;5.30;99.90;;;;;;5011298;28;20026;-57
2021/01/18 12:47:00;;;;;;;32.97;14.02;;;5.40;99.90;;;;;;5011128;28;20034;-57
2021/01/18 12:49:26;;;;;;;29.67;14.88;;;5.40;99.90;;;;;;5011406;28;20398;-55
2021/01/18 12:51:52;;;;;;;28.02;14.00;;;5.40;99.90;;;;;;5012139;28;20029;-54
2021/01/18 12:54:18;;;;;;;33.05;14.48;;;5.40;99.90;;;;;;5010672;28;20499;-59